sensor_id;sensor_type;location;lat;lon;timestamp;temperature;humidity
18177;DHT22;9213;50.858;3.964;2022-12-29T00:00:19;15.00;64.80
18177;DHT22;9213;50.858;3.964;2022-12-29T00:02:46;15.00;64.70
18177;DHT22;9213;50.858;3.964;2022-12-29T00:05:12;14.90;64.70
18177;DHT22;9213;50.858;3.964;2022-12-29T00:07:41;15.00;64.60
18177;DHT22;9213;50.858;3.964;2022-12-29T00:10:08;14.90;64.60
18177;DHT22;9213;50.858;3.964;2022-12-29T00:12:35;14.90;64.50
18177;DHT22;9213;50.858;3.964;2022-12-29T00:15:19;14.90;64.50
18177;DHT22;9213;50.858;3.964;2022-12-29T00:18:04;15.00;64.30
18177;DHT22;9213;50.858;3.964;2022-12-29T00:20:34;15.00;64.20
18177;DHT22;9213;50.858;3.964;2022-12-29T00:23:20;15.00;64.20
18177;DHT22;9213;50.858;3.964;2022-12-29T00:26:13;15.00;64.20
18177;DHT22;9213;50.858;3.964;2022-12-29T00:28:57;15.00;64.00
18177;DHT22;9213;50.858;3.964;2022-12-29T00:31:42;14.90;63.90
18177;DHT22;9213;50.858;3.964;2022-12-29T00:34:26;15.00;63.90
18177;DHT22;9213;50.858;3.964;2022-12-29T00:37:11;14.90;63.80
18177;DHT22;9213;50.858;3.964;2022-12-29T00:39:39;15.00;63.60
18177;DHT22;9213;50.858;3.964;2022-12-29T00:42:23;15.00;63.60
18177;DHT22;9213;50.858;3.964;2022-12-29T00:45:08;15.00;63.40
18177;DHT22;9213;50.858;3.964;2022-12-29T00:47:35;15.00;63.30
18177;DHT22;9213;50.858;3.964;2022-12-29T00:50:02;15.00;63.30
18177;DHT22;9213;50.858;3.964;2022-12-29T00:52:28;15.00;63.20
18177;DHT22;9213;50.858;3.964;2022-12-29T00:54:56;15.10;63.10
18177;DHT22;9213;50.858;3.964;2022-12-29T00:57:23;15.00;62.90
18177;DHT22;9213;50.858;3.964;2022-12-29T00:59:50;15.00;62.90
18177;DHT22;9213;50.858;3.964;2022-12-29T01:02:17;15.00;62.90
18177;DHT22;9213;50.858;3.964;2022-12-29T01:04:44;15.00;62.80
18177;DHT22;9213;50.858;3.964;2022-12-29T01:07:11;15.00;62.80
18177;DHT22;9213;50.858;3.964;2022-12-29T01:09:38;15.00;62.80
18177;DHT22;9213;50.858;3.964;2022-12-29T01:12:23;15.00;62.80
18177;DHT22;9213;50.858;3.964;2022-12-29T01:15:05;15.00;62.70
18177;DHT22;9213;50.858;3.964;2022-12-29T01:17:32;15.00;62.90
18177;DHT22;9213;50.858;3.964;2022-12-29T01:19:59;15.00;62.90
18177;DHT22;9213;50.858;3.964;2022-12-29T01:22:26;15.00;63.00
18177;DHT22;9213;50.858;3.964;2022-12-29T01:24:53;14.90;63.10
18177;DHT22;9213;50.858;3.964;2022-12-29T01:27:20;14.90;63.00
18177;DHT22;9213;50.858;3.964;2022-12-29T01:29:49;14.90;63.10
18177;DHT22;9213;50.858;3.964;2022-12-29T01:32:15;14.90;63.20
18177;DHT22;9213;50.858;3.964;2022-12-29T01:34:42;14.90;63.20
18177;DHT22;9213;50.858;3.964;2022-12-29T01:37:09;14.90;63.10
18177;DHT22;9213;50.858;3.964;2022-12-29T01:39:37;14.90;63.10
18177;DHT22;9213;50.858;3.964;2022-12-29T01:42:03;14.90;63.10
18177;DHT22;9213;50.858;3.964;2022-12-29T01:44:51;14.90;63.20
18177;DHT22;9213;50.858;3.964;2022-12-29T01:47:29;14.90;63.30
18177;DHT22;9213;50.858;3.964;2022-12-29T01:50:01;14.90;63.20
18177;DHT22;9213;50.858;3.964;2022-12-29T01:52:31;14.80;63.00
18177;DHT22;9213;50.858;3.964;2022-12-29T01:54:59;14.80;63.00
18177;DHT22;9213;50.858;3.964;2022-12-29T01:57:31;14.80;63.10
18177;DHT22;9213;50.858;3.964;2022-12-29T02:00:04;14.80;63.20
18177;DHT22;9213;50.858;3.964;2022-12-29T02:02:33;14.80;63.20
18177;DHT22;9213;50.858;3.964;2022-12-29T02:05:03;14.70;63.20
18177;DHT22;9213;50.858;3.964;2022-12-29T02:07:31;14.70;63.20
18177;DHT22;9213;50.858;3.964;2022-12-29T02:09:58;14.70;63.30
18177;DHT22;9213;50.858;3.964;2022-12-29T02:12:27;14.70;63.40
18177;DHT22;9213;50.858;3.964;2022-12-29T02:14:57;14.60;63.20
18177;DHT22;9213;50.858;3.964;2022-12-29T02:17:36;14.60;63.30
18177;DHT22;9213;50.858;3.964;2022-12-29T02:20:29;14.60;63.30
18177;DHT22;9213;50.858;3.964;2022-12-29T02:23:14;14.60;63.40
18177;DHT22;9213;50.858;3.964;2022-12-29T02:26:08;14.60;63.20
18177;DHT22;9213;50.858;3.964;2022-12-29T02:28:53;14.60;63.40
18177;DHT22;9213;50.858;3.964;2022-12-29T02:31:33;14.50;63.40
18177;DHT22;9213;50.858;3.964;2022-12-29T02:34:11;14.50;63.30
18177;DHT22;9213;50.858;3.964;2022-12-29T02:36:43;14.50;63.40
18177;DHT22;9213;50.858;3.964;2022-12-29T02:39:21;14.40;63.40
18177;DHT22;9213;50.858;3.964;2022-12-29T02:41:58;14.50;63.40
18177;DHT22;9213;50.858;3.964;2022-12-29T02:44:32;14.50;63.50
18177;DHT22;9213;50.858;3.964;2022-12-29T02:47:07;14.40;63.40
18177;DHT22;9213;50.858;3.964;2022-12-29T02:49:40;14.40;63.30
18177;DHT22;9213;50.858;3.964;2022-12-29T02:52:15;14.40;63.30
18177;DHT22;9213;50.858;3.964;2022-12-29T02:54:43;14.40;63.30
18177;DHT22;9213;50.858;3.964;2022-12-29T02:57:12;14.40;63.20
18177;DHT22;9213;50.858;3.964;2022-12-29T02:59:39;14.40;63.30
18177;DHT22;9213;50.858;3.964;2022-12-29T03:02:27;14.40;63.20
18177;DHT22;9213;50.858;3.964;2022-12-29T03:05:14;14.40;63.20
18177;DHT22;9213;50.858;3.964;2022-12-29T03:07:48;14.40;63.10
18177;DHT22;9213;50.858;3.964;2022-12-29T03:10:25;14.30;62.90
18177;DHT22;9213;50.858;3.964;2022-12-29T03:12:59;14.30;62.80
18177;DHT22;9213;50.858;3.964;2022-12-29T03:15:53;14.20;62.70
18177;DHT22;9213;50.858;3.964;2022-12-29T03:18:39;14.10;62.70
18177;DHT22;9213;50.858;3.964;2022-12-29T03:21:11;14.10;62.90
18177;DHT22;9213;50.858;3.964;2022-12-29T03:23:41;14.00;62.80
18177;DHT22;9213;50.858;3.964;2022-12-29T03:26:11;14.00;62.80
18177;DHT22;9213;50.858;3.964;2022-12-29T03:28:40;13.90;62.80
18177;DHT22;9213;50.858;3.964;2022-12-29T03:31:10;13.90;62.80
18177;DHT22;9213;50.858;3.964;2022-12-29T03:33:40;13.90;62.80
18177;DHT22;9213;50.858;3.964;2022-12-29T03:36:12;13.90;62.70
18177;DHT22;9213;50.858;3.964;2022-12-29T03:38:45;13.80;62.40
18177;DHT22;9213;50.858;3.964;2022-12-29T03:41:16;13.80;62.30
18177;DHT22;9213;50.858;3.964;2022-12-29T03:43:44;13.80;62.30
18177;DHT22;9213;50.858;3.964;2022-12-29T03:46:11;13.80;62.30
18177;DHT22;9213;50.858;3.964;2022-12-29T03:48:39;13.70;62.30
18177;DHT22;9213;50.858;3.964;2022-12-29T03:51:06;13.70;62.20
18177;DHT22;9213;50.858;3.964;2022-12-29T03:53:33;13.70;62.20
18177;DHT22;9213;50.858;3.964;2022-12-29T03:56:00;13.70;62.00
18177;DHT22;9213;50.858;3.964;2022-12-29T03:58:27;13.70;62.00
18177;DHT22;9213;50.858;3.964;2022-12-29T04:00:54;13.60;61.90
18177;DHT22;9213;50.858;3.964;2022-12-29T04:03:20;13.60;62.00
18177;DHT22;9213;50.858;3.964;2022-12-29T04:05:49;13.60;62.10
18177;DHT22;9213;50.858;3.964;2022-12-29T04:08:16;13.60;62.10
18177;DHT22;9213;50.858;3.964;2022-12-29T04:10:43;13.50;62.10
18177;DHT22;9213;50.858;3.964;2022-12-29T04:13:09;13.50;62.10
18177;DHT22;9213;50.858;3.964;2022-12-29T04:15:36;13.50;62.20
18177;DHT22;9213;50.858;3.964;2022-12-29T04:18:03;13.50;62.20
18177;DHT22;9213;50.858;3.964;2022-12-29T04:20:30;13.50;62.40
18177;DHT22;9213;50.858;3.964;2022-12-29T04:23:16;13.50;62.60
18177;DHT22;9213;50.858;3.964;2022-12-29T04:25:45;13.50;62.50
18177;DHT22;9213;50.858;3.964;2022-12-29T04:28:12;13.60;62.50
18177;DHT22;9213;50.858;3.964;2022-12-29T04:30:39;13.60;62.40
18177;DHT22;9213;50.858;3.964;2022-12-29T04:33:05;13.70;62.40
18177;DHT22;9213;50.858;3.964;2022-12-29T04:35:32;13.70;62.30
18177;DHT22;9213;50.858;3.964;2022-12-29T04:37:59;13.70;62.20
18177;DHT22;9213;50.858;3.964;2022-12-29T04:40:27;13.70;62.10
18177;DHT22;9213;50.858;3.964;2022-12-29T04:42:54;13.70;62.10
18177;DHT22;9213;50.858;3.964;2022-12-29T04:45:23;13.70;62.10
18177;DHT22;9213;50.858;3.964;2022-12-29T04:47:50;13.70;62.10
18177;DHT22;9213;50.858;3.964;2022-12-29T04:50:17;13.70;62.10
18177;DHT22;9213;50.858;3.964;2022-12-29T04:52:43;13.70;62.00
18177;DHT22;9213;50.858;3.964;2022-12-29T04:55:10;13.70;61.90
18177;DHT22;9213;50.858;3.964;2022-12-29T04:57:39;13.70;61.90
18177;DHT22;9213;50.858;3.964;2022-12-29T05:00:06;13.70;61.80
18177;DHT22;9213;50.858;3.964;2022-12-29T05:02:35;13.70;61.80
18177;DHT22;9213;50.858;3.964;2022-12-29T05:05:02;13.80;62.50
18177;DHT22;9213;50.858;3.964;2022-12-29T05:07:29;13.80;61.50
18177;DHT22;9213;50.858;3.964;2022-12-29T05:09:56;13.80;61.40
18177;DHT22;9213;50.858;3.964;2022-12-29T05:12:23;13.80;61.30
18177;DHT22;9213;50.858;3.964;2022-12-29T05:14:51;13.80;61.30
18177;DHT22;9213;50.858;3.964;2022-12-29T05:17:18;13.80;61.30
18177;DHT22;9213;50.858;3.964;2022-12-29T05:19:44;13.80;61.20
18177;DHT22;9213;50.858;3.964;2022-12-29T05:22:11;13.80;61.20
18177;DHT22;9213;50.858;3.964;2022-12-29T05:24:38;13.80;61.10
18177;DHT22;9213;50.858;3.964;2022-12-29T05:27:05;13.80;61.00
18177;DHT22;9213;50.858;3.964;2022-12-29T05:29:32;13.80;61.00
18177;DHT22;9213;50.858;3.964;2022-12-29T05:32:00;13.90;61.00
18177;DHT22;9213;50.858;3.964;2022-12-29T05:34:27;13.90;61.00
18177;DHT22;9213;50.858;3.964;2022-12-29T05:36:54;13.90;60.90
18177;DHT22;9213;50.858;3.964;2022-12-29T05:39:21;13.90;60.70
18177;DHT22;9213;50.858;3.964;2022-12-29T05:41:48;13.80;60.40
18177;DHT22;9213;50.858;3.964;2022-12-29T05:44:15;13.80;60.30
18177;DHT22;9213;50.858;3.964;2022-12-29T05:46:42;13.80;60.30
18177;DHT22;9213;50.858;3.964;2022-12-29T05:49:10;13.70;60.40
18177;DHT22;9213;50.858;3.964;2022-12-29T05:51:37;13.70;60.50
18177;DHT22;9213;50.858;3.964;2022-12-29T05:54:04;13.70;60.50
18177;DHT22;9213;50.858;3.964;2022-12-29T05:56:31;13.60;60.50
18177;DHT22;9213;50.858;3.964;2022-12-29T05:58:58;13.60;60.40
18177;DHT22;9213;50.858;3.964;2022-12-29T06:01:25;13.60;60.50
18177;DHT22;9213;50.858;3.964;2022-12-29T06:03:52;13.60;60.70
18177;DHT22;9213;50.858;3.964;2022-12-29T06:06:20;13.60;60.70
18177;DHT22;9213;50.858;3.964;2022-12-29T06:08:47;13.60;60.60
18177;DHT22;9213;50.858;3.964;2022-12-29T06:11:14;13.60;60.50
18177;DHT22;9213;50.858;3.964;2022-12-29T06:13:41;13.60;60.50
18177;DHT22;9213;50.858;3.964;2022-12-29T06:16:08;13.70;60.40
18177;DHT22;9213;50.858;3.964;2022-12-29T06:18:35;13.70;60.20
18177;DHT22;9213;50.858;3.964;2022-12-29T06:21:03;13.70;60.00
18177;DHT22;9213;50.858;3.964;2022-12-29T06:23:32;13.80;59.90
18177;DHT22;9213;50.858;3.964;2022-12-29T06:25:59;13.80;59.70
18177;DHT22;9213;50.858;3.964;2022-12-29T06:28:26;13.80;59.70
18177;DHT22;9213;50.858;3.964;2022-12-29T06:30:52;13.80;59.50
18177;DHT22;9213;50.858;3.964;2022-12-29T06:33:19;13.80;59.50
18177;DHT22;9213;50.858;3.964;2022-12-29T06:35:46;13.80;59.40
18177;DHT22;9213;50.858;3.964;2022-12-29T06:38:13;13.90;59.40
18177;DHT22;9213;50.858;3.964;2022-12-29T06:40:43;13.80;59.30
18177;DHT22;9213;50.858;3.964;2022-12-29T06:43:10;13.90;59.20
18177;DHT22;9213;50.858;3.964;2022-12-29T06:45:38;13.90;59.20
18177;DHT22;9213;50.858;3.964;2022-12-29T06:48:05;13.90;59.10
18177;DHT22;9213;50.858;3.964;2022-12-29T06:50:32;13.90;59.00
18177;DHT22;9213;50.858;3.964;2022-12-29T06:52:59;13.90;59.00
18177;DHT22;9213;50.858;3.964;2022-12-29T06:55:26;13.90;58.80
18177;DHT22;9213;50.858;3.964;2022-12-29T06:57:55;13.90;58.70
18177;DHT22;9213;50.858;3.964;2022-12-29T07:00:22;13.90;58.70
18177;DHT22;9213;50.858;3.964;2022-12-29T07:02:49;13.80;58.60
18177;DHT22;9213;50.858;3.964;2022-12-29T07:05:16;13.80;58.60
18177;DHT22;9213;50.858;3.964;2022-12-29T07:07:43;13.90;58.60
18177;DHT22;9213;50.858;3.964;2022-12-29T07:10:10;13.90;58.50
18177;DHT22;9213;50.858;3.964;2022-12-29T07:12:37;13.90;58.30
18177;DHT22;9213;50.858;3.964;2022-12-29T07:15:06;13.90;58.10
18177;DHT22;9213;50.858;3.964;2022-12-29T07:17:33;13.90;58.00
18177;DHT22;9213;50.858;3.964;2022-12-29T07:20:00;13.90;57.80
18177;DHT22;9213;50.858;3.964;2022-12-29T07:22:27;13.90;57.60
18177;DHT22;9213;50.858;3.964;2022-12-29T07:24:54;13.90;57.40
18177;DHT22;9213;50.858;3.964;2022-12-29T07:27:21;14.00;57.40
18177;DHT22;9213;50.858;3.964;2022-12-29T07:29:48;14.00;57.30
18177;DHT22;9213;50.858;3.964;2022-12-29T07:32:16;14.00;57.30
18177;DHT22;9213;50.858;3.964;2022-12-29T07:34:43;14.00;57.10
18177;DHT22;9213;50.858;3.964;2022-12-29T07:37:12;14.00;57.10
18177;DHT22;9213;50.858;3.964;2022-12-29T07:39:41;14.00;57.00
18177;DHT22;9213;50.858;3.964;2022-12-29T07:42:08;14.00;56.70
18177;DHT22;9213;50.858;3.964;2022-12-29T07:44:35;14.00;56.70
18177;DHT22;9213;50.858;3.964;2022-12-29T07:47:03;14.00;56.60
18177;DHT22;9213;50.858;3.964;2022-12-29T07:49:31;14.10;56.50
18177;DHT22;9213;50.858;3.964;2022-12-29T07:51:58;14.10;56.30
18177;DHT22;9213;50.858;3.964;2022-12-29T07:54:25;14.10;56.20
18177;DHT22;9213;50.858;3.964;2022-12-29T07:56:52;14.10;56.10
18177;DHT22;9213;50.858;3.964;2022-12-29T07:59:19;14.10;56.10
18177;DHT22;9213;50.858;3.964;2022-12-29T08:01:46;14.20;56.00
18177;DHT22;9213;50.858;3.964;2022-12-29T08:04:13;14.20;55.90
18177;DHT22;9213;50.858;3.964;2022-12-29T08:06:41;14.20;55.80
18177;DHT22;9213;50.858;3.964;2022-12-29T08:09:08;14.20;55.80
18177;DHT22;9213;50.858;3.964;2022-12-29T08:11:35;14.20;55.70
18177;DHT22;9213;50.858;3.964;2022-12-29T08:14:03;14.20;55.50
18177;DHT22;9213;50.858;3.964;2022-12-29T08:16:30;14.30;55.30
18177;DHT22;9213;50.858;3.964;2022-12-29T08:18:57;14.30;55.20
18177;DHT22;9213;50.858;3.964;2022-12-29T08:21:24;14.30;54.90
18177;DHT22;9213;50.858;3.964;2022-12-29T08:23:52;14.30;54.90
18177;DHT22;9213;50.858;3.964;2022-12-29T08:26:19;14.30;54.90
18177;DHT22;9213;50.858;3.964;2022-12-29T08:28:47;14.30;54.80
18177;DHT22;9213;50.858;3.964;2022-12-29T08:31:14;14.30;54.70
18177;DHT22;9213;50.858;3.964;2022-12-29T08:33:41;14.30;54.50
18177;DHT22;9213;50.858;3.964;2022-12-29T08:36:09;14.30;54.40
18177;DHT22;9213;50.858;3.964;2022-12-29T08:38:35;14.30;54.40
18177;DHT22;9213;50.858;3.964;2022-12-29T08:41:04;14.40;54.40
18177;DHT22;9213;50.858;3.964;2022-12-29T08:43:31;14.40;54.40
18177;DHT22;9213;50.858;3.964;2022-12-29T08:45:58;14.30;54.40
18177;DHT22;9213;50.858;3.964;2022-12-29T08:48:25;14.40;54.50
18177;DHT22;9213;50.858;3.964;2022-12-29T08:50:52;14.30;54.60
18177;DHT22;9213;50.858;3.964;2022-12-29T08:53:19;14.30;54.80
18177;DHT22;9213;50.858;3.964;2022-12-29T08:55:46;14.30;55.10
18177;DHT22;9213;50.858;3.964;2022-12-29T08:58:15;14.20;55.30
18177;DHT22;9213;50.858;3.964;2022-12-29T09:00:43;14.20;55.50
18177;DHT22;9213;50.858;3.964;2022-12-29T09:03:10;14.10;55.80
18177;DHT22;9213;50.858;3.964;2022-12-29T09:05:37;14.00;56.10
18177;DHT22;9213;50.858;3.964;2022-12-29T09:08:04;14.00;56.40
18177;DHT22;9213;50.858;3.964;2022-12-29T09:10:31;13.90;56.70
18177;DHT22;9213;50.858;3.964;2022-12-29T09:12:58;13.90;56.90
18177;DHT22;9213;50.858;3.964;2022-12-29T09:15:26;13.90;57.00
18177;DHT22;9213;50.858;3.964;2022-12-29T09:17:53;13.90;57.10
18177;DHT22;9213;50.858;3.964;2022-12-29T09:20:20;13.90;57.20
18177;DHT22;9213;50.858;3.964;2022-12-29T09:22:48;13.80;57.30
18177;DHT22;9213;50.858;3.964;2022-12-29T09:25:15;13.80;57.50
18177;DHT22;9213;50.858;3.964;2022-12-29T09:27:43;13.80;57.50
18177;DHT22;9213;50.858;3.964;2022-12-29T09:30:11;13.80;57.70
18177;DHT22;9213;50.858;3.964;2022-12-29T09:32:41;13.80;57.80
18177;DHT22;9213;50.858;3.964;2022-12-29T09:35:08;13.70;57.80
18177;DHT22;9213;50.858;3.964;2022-12-29T09:37:35;13.70;57.90
18177;DHT22;9213;50.858;3.964;2022-12-29T09:40:03;13.70;58.00
18177;DHT22;9213;50.858;3.964;2022-12-29T09:42:35;13.70;58.10
18177;DHT22;9213;50.858;3.964;2022-12-29T09:45:12;13.80;58.10
18177;DHT22;9213;50.858;3.964;2022-12-29T09:47:42;13.80;58.00
18177;DHT22;9213;50.858;3.964;2022-12-29T09:50:18;13.90;57.90
18177;DHT22;9213;50.858;3.964;2022-12-29T09:52:48;13.90;58.00
18177;DHT22;9213;50.858;3.964;2022-12-29T09:55:20;13.90;57.70
18177;DHT22;9213;50.858;3.964;2022-12-29T09:57:52;14.00;57.60
18177;DHT22;9213;50.858;3.964;2022-12-29T10:00:22;14.00;57.40
18177;DHT22;9213;50.858;3.964;2022-12-29T10:02:53;14.00;57.20
18177;DHT22;9213;50.858;3.964;2022-12-29T10:05:29;14.10;57.40
18177;DHT22;9213;50.858;3.964;2022-12-29T10:08:14;14.10;57.30
18177;DHT22;9213;50.858;3.964;2022-12-29T10:10:50;14.20;57.20
18177;DHT22;9213;50.858;3.964;2022-12-29T10:13:28;14.30;56.90
18177;DHT22;9213;50.858;3.964;2022-12-29T10:16:04;14.40;56.40
18177;DHT22;9213;50.858;3.964;2022-12-29T10:18:57;14.40;56.10
18177;DHT22;9213;50.858;3.964;2022-12-29T10:21:34;14.50;56.10
18177;DHT22;9213;50.858;3.964;2022-12-29T10:24:09;14.60;55.80
18177;DHT22;9213;50.858;3.964;2022-12-29T10:26:39;14.60;55.70
18177;DHT22;9213;50.858;3.964;2022-12-29T10:29:14;14.60;55.30
18177;DHT22;9213;50.858;3.964;2022-12-29T10:31:44;14.70;55.90
18177;DHT22;9213;50.858;3.964;2022-12-29T10:34:19;14.70;55.00
18177;DHT22;9213;50.858;3.964;2022-12-29T10:36:49;14.80;54.80
18177;DHT22;9213;50.858;3.964;2022-12-29T10:39:21;14.90;54.80
18177;DHT22;9213;50.858;3.964;2022-12-29T10:41:53;14.90;54.50
18177;DHT22;9213;50.858;3.964;2022-12-29T10:44:24;15.00;54.20
18177;DHT22;9213;50.858;3.964;2022-12-29T10:46:57;15.10;53.90
18177;DHT22;9213;50.858;3.964;2022-12-29T10:49:28;15.10;53.50
18177;DHT22;9213;50.858;3.964;2022-12-29T10:51:59;15.10;53.30
18177;DHT22;9213;50.858;3.964;2022-12-29T10:54:32;15.10;53.20
18177;DHT22;9213;50.858;3.964;2022-12-29T10:57:01;15.10;53.30
18177;DHT22;9213;50.858;3.964;2022-12-29T10:59:31;15.10;53.10
18177;DHT22;9213;50.858;3.964;2022-12-29T11:02:13;15.10;53.40
18177;DHT22;9213;50.858;3.964;2022-12-29T11:04:53;15.10;53.60
18177;DHT22;9213;50.858;3.964;2022-12-29T11:07:22;15.10;53.70
18177;DHT22;9213;50.858;3.964;2022-12-29T11:09:49;15.10;53.70
18177;DHT22;9213;50.858;3.964;2022-12-29T11:12:20;15.10;53.70
18177;DHT22;9213;50.858;3.964;2022-12-29T11:14:47;15.10;54.00
18177;DHT22;9213;50.858;3.964;2022-12-29T11:17:26;15.10;54.00
18177;DHT22;9213;50.858;3.964;2022-12-29T11:19:55;15.10;54.00
18177;DHT22;9213;50.858;3.964;2022-12-29T11:22:24;15.10;53.90
18177;DHT22;9213;50.858;3.964;2022-12-29T11:24:53;15.10;54.00
18177;DHT22;9213;50.858;3.964;2022-12-29T11:27:21;15.20;54.10
18177;DHT22;9213;50.858;3.964;2022-12-29T11:29:49;15.30;54.10
18177;DHT22;9213;50.858;3.964;2022-12-29T11:32:19;15.30;53.90
18177;DHT22;9213;50.858;3.964;2022-12-29T11:34:46;15.40;53.70
18177;DHT22;9213;50.858;3.964;2022-12-29T11:37:18;15.40;53.30
18177;DHT22;9213;50.858;3.964;2022-12-29T11:39:51;15.40;53.40
18177;DHT22;9213;50.858;3.964;2022-12-29T11:42:22;15.40;53.40
18177;DHT22;9213;50.858;3.964;2022-12-29T11:44:50;15.40;53.30
18177;DHT22;9213;50.858;3.964;2022-12-29T11:47:27;15.40;53.30
18177;DHT22;9213;50.858;3.964;2022-12-29T11:49:58;15.40;53.10
18177;DHT22;9213;50.858;3.964;2022-12-29T11:52:29;15.30;53.10
18177;DHT22;9213;50.858;3.964;2022-12-29T11:55:00;15.30;53.00
18177;DHT22;9213;50.858;3.964;2022-12-29T11:57:28;15.20;52.80
18177;DHT22;9213;50.858;3.964;2022-12-29T11:59:55;15.20;53.00
18177;DHT22;9213;50.858;3.964;2022-12-29T12:02:42;15.10;53.00
18177;DHT22;9213;50.858;3.964;2022-12-29T12:05:23;15.10;53.20
18177;DHT22;9213;50.858;3.964;2022-12-29T12:07:57;15.10;53.20
18177;DHT22;9213;50.858;3.964;2022-12-29T12:10:29;15.00;53.10
18177;DHT22;9213;50.858;3.964;2022-12-29T12:13:03;15.00;53.30
18177;DHT22;9213;50.858;3.964;2022-12-29T12:15:36;14.90;53.60
18177;DHT22;9213;50.858;3.964;2022-12-29T12:18:10;14.90;54.70
18177;DHT22;9213;50.858;3.964;2022-12-29T12:20:45;14.90;54.40
18177;DHT22;9213;50.858;3.964;2022-12-29T12:23:28;14.80;54.40
18177;DHT22;9213;50.858;3.964;2022-12-29T12:26:02;14.90;54.40
18177;DHT22;9213;50.858;3.964;2022-12-29T12:28:37;14.90;54.20
18177;DHT22;9213;50.858;3.964;2022-12-29T12:31:16;14.90;54.10
18177;DHT22;9213;50.858;3.964;2022-12-29T12:33:47;15.00;54.00
18177;DHT22;9213;50.858;3.964;2022-12-29T12:39:23;14.90;53.80
18177;DHT22;9213;50.858;3.964;2022-12-29T12:42:00;14.90;54.00
18177;DHT22;9213;50.858;3.964;2022-12-29T12:44:36;14.90;54.20
18177;DHT22;9213;50.858;3.964;2022-12-29T12:47:27;14.90;54.30
18177;DHT22;9213;50.858;3.964;2022-12-29T12:50:09;14.90;54.20
18177;DHT22;9213;50.858;3.964;2022-12-29T12:52:52;14.90;54.20
18177;DHT22;9213;50.858;3.964;2022-12-29T12:55:37;14.90;54.30
18177;DHT22;9213;50.858;3.964;2022-12-29T12:58:13;14.80;54.50
18177;DHT22;9213;50.858;3.964;2022-12-29T13:00:54;14.90;54.60
18177;DHT22;9213;50.858;3.964;2022-12-29T13:03:32;15.00;54.50
18177;DHT22;9213;50.858;3.964;2022-12-29T13:06:12;15.10;54.40
18177;DHT22;9213;50.858;3.964;2022-12-29T13:09:08;15.10;54.30
18177;DHT22;9213;50.858;3.964;2022-12-29T13:11:54;15.30;54.10
18177;DHT22;9213;50.858;3.964;2022-12-29T13:14:36;15.40;53.80
18177;DHT22;9213;50.858;3.964;2022-12-29T13:17:12;15.50;53.50
18177;DHT22;9213;50.858;3.964;2022-12-29T13:19:44;15.60;52.90
18177;DHT22;9213;50.858;3.964;2022-12-29T13:22:20;15.60;52.30
18177;DHT22;9213;50.858;3.964;2022-12-29T13:24:56;15.70;52.20
18177;DHT22;9213;50.858;3.964;2022-12-29T13:27:33;15.70;51.90
18177;DHT22;9213;50.858;3.964;2022-12-29T13:30:04;15.70;51.70
18177;DHT22;9213;50.858;3.964;2022-12-29T13:32:42;15.60;51.80
18177;DHT22;9213;50.858;3.964;2022-12-29T13:35:24;15.60;51.50
18177;DHT22;9213;50.858;3.964;2022-12-29T13:37:58;15.60;51.70
18177;DHT22;9213;50.858;3.964;2022-12-29T13:40:31;15.60;51.90
18177;DHT22;9213;50.858;3.964;2022-12-29T13:43:02;15.60;52.00
18177;DHT22;9213;50.858;3.964;2022-12-29T13:45:31;15.60;51.70
18177;DHT22;9213;50.858;3.964;2022-12-29T13:48:05;15.60;51.70
18177;DHT22;9213;50.858;3.964;2022-12-29T13:50:36;15.60;51.90
18177;DHT22;9213;50.858;3.964;2022-12-29T13:53:09;15.50;52.20
18177;DHT22;9213;50.858;3.964;2022-12-29T13:55:46;15.30;52.40
18177;DHT22;9213;50.858;3.964;2022-12-29T13:58:21;15.10;52.30
18177;DHT22;9213;50.858;3.964;2022-12-29T14:00:55;14.80;52.80
18177;DHT22;9213;50.858;3.964;2022-12-29T14:03:47;14.50;53.60
18177;DHT22;9213;50.858;3.964;2022-12-29T14:06:20;14.20;54.30
18177;DHT22;9213;50.858;3.964;2022-12-29T14:08:48;14.00;55.00
18177;DHT22;9213;50.858;3.964;2022-12-29T14:11:18;13.70;56.20
18177;DHT22;9213;50.858;3.964;2022-12-29T14:13:49;13.60;55.80
18177;DHT22;9213;50.858;3.964;2022-12-29T14:16:27;13.50;56.20
18177;DHT22;9213;50.858;3.964;2022-12-29T14:18:56;13.40;56.70
18177;DHT22;9213;50.858;3.964;2022-12-29T14:21:30;13.30;57.00
18177;DHT22;9213;50.858;3.964;2022-12-29T14:24:40;13.30;57.40
18177;DHT22;9213;50.858;3.964;2022-12-29T14:27:44;13.30;57.60
18177;DHT22;9213;50.858;3.964;2022-12-29T14:33:28;13.20;57.70
18177;DHT22;9213;50.858;3.964;2022-12-29T14:35:55;13.10;57.70
18177;DHT22;9213;50.858;3.964;2022-12-29T14:38:27;13.10;57.90
18177;DHT22;9213;50.858;3.964;2022-12-29T14:41:24;13.00;58.00
18177;DHT22;9213;50.858;3.964;2022-12-29T14:43:55;13.00;58.10
18177;DHT22;9213;50.858;3.964;2022-12-29T14:46:23;12.90;58.00
18177;DHT22;9213;50.858;3.964;2022-12-29T14:48:55;12.90;58.20
18177;DHT22;9213;50.858;3.964;2022-12-29T14:51:35;12.90;58.40
18177;DHT22;9213;50.858;3.964;2022-12-29T14:57:06;12.80;58.40
18177;DHT22;9213;50.858;3.964;2022-12-29T14:59:34;12.70;58.50
18177;DHT22;9213;50.858;3.964;2022-12-29T15:02:10;12.70;58.70
18177;DHT22;9213;50.858;3.964;2022-12-29T15:04:40;12.70;58.90
18177;DHT22;9213;50.858;3.964;2022-12-29T15:07:09;12.70;59.00
18177;DHT22;9213;50.858;3.964;2022-12-29T15:09:40;12.60;58.80
18177;DHT22;9213;50.858;3.964;2022-12-29T15:12:19;12.60;59.00
18177;DHT22;9213;50.858;3.964;2022-12-29T15:14:51;12.60;59.10
18177;DHT22;9213;50.858;3.964;2022-12-29T15:17:24;12.60;59.30
18177;DHT22;9213;50.858;3.964;2022-12-29T15:19:53;12.60;59.50
18177;DHT22;9213;50.858;3.964;2022-12-29T15:22:21;12.60;59.60
18177;DHT22;9213;50.858;3.964;2022-12-29T15:24:50;12.60;59.70
18177;DHT22;9213;50.858;3.964;2022-12-29T15:27:20;12.70;59.80
18177;DHT22;9213;50.858;3.964;2022-12-29T15:29:48;12.70;59.80
18177;DHT22;9213;50.858;3.964;2022-12-29T15:32:23;12.70;59.60
18177;DHT22;9213;50.858;3.964;2022-12-29T15:34:54;12.70;59.30
18177;DHT22;9213;50.858;3.964;2022-12-29T15:37:23;12.70;59.20
18177;DHT22;9213;50.858;3.964;2022-12-29T15:39:51;12.60;59.10
18177;DHT22;9213;50.858;3.964;2022-12-29T15:42:50;12.60;59.10
18177;DHT22;9213;50.858;3.964;2022-12-29T15:45:19;12.60;59.30
18177;DHT22;9213;50.858;3.964;2022-12-29T15:47:47;12.50;59.10
18177;DHT22;9213;50.858;3.964;2022-12-29T15:50:22;12.40;59.10
18177;DHT22;9213;50.858;3.964;2022-12-29T15:52:50;12.40;59.20
18177;DHT22;9213;50.858;3.964;2022-12-29T15:55:24;12.30;59.30
18177;DHT22;9213;50.858;3.964;2022-12-29T15:57:56;12.30;59.50
18177;DHT22;9213;50.858;3.964;2022-12-29T16:00:25;12.20;59.50
18177;DHT22;9213;50.858;3.964;2022-12-29T16:02:54;12.20;59.50
18177;DHT22;9213;50.858;3.964;2022-12-29T16:05:23;12.20;59.60
18177;DHT22;9213;50.858;3.964;2022-12-29T16:07:54;12.10;59.80
18177;DHT22;9213;50.858;3.964;2022-12-29T16:10:26;12.20;59.90
18177;DHT22;9213;50.858;3.964;2022-12-29T16:13:02;12.10;60.30
18177;DHT22;9213;50.858;3.964;2022-12-29T16:15:30;12.20;60.00
18177;DHT22;9213;50.858;3.964;2022-12-29T16:17:57;12.20;59.80
18177;DHT22;9213;50.858;3.964;2022-12-29T16:20:34;12.20;59.70